Time;durP1;ratioP1;P1;durP2;ratioP2;P2;SDS_P1;SDS_P2;PMS_P1;PMS_P2;Temp;Humidity;BMP_temperature;BMP_pressure;BME280_temperature;BME280_humidity;BME280_pressure;Samples;Min_cycle;Max_cycle;Signal;HPM_P1;HPM_P2
2022/07/28 00:01:01;;;;;;;0.98;0.60;;;;;;;14.88;100.00;100121.16;7391459;19;20018;-83
2022/07/28 00:03:27;;;;;;;1.05;0.45;;;;;;;14.85;100.00;100116.56;7387758;19;20014;-83
2022/07/28 00:05:53;;;;;;;0.68;0.68;;;;;;;14.80;100.00;100108.88;7389435;19;20049;-83
2022/07/28 00:08:19;;;;;;;1.55;0.88;;;;;;;14.78;100.00;100117.00;7387245;19;20014;-82
2022/07/28 00:10:45;;;;;;;3.05;1.20;;;;;;;14.72;100.00;100113.41;7388889;19;20018;-82
2022/07/28 00:13:11;;;;;;;2.38;0.82;;;;;;;14.69;100.00;100114.38;7387626;19;20010;-82
2022/07/28 00:15:38;;;;;;;1.30;0.68;;;;;;;14.71;100.00;100111.09;7386329;19;20014;-83
2022/07/28 00:18:04;;;;;;;0.75;0.70;;;;;;;14.70;100.00;100110.34;7388486;19;20496;-83
2022/07/28 00:20:30;;;;;;;5.95;1.25;;;;;;;14.71;100.00;100114.66;7390018;19;20023;-82
2022/07/28 00:22:56;;;;;;;2.78;1.38;;;;;;;14.70;100.00;100109.56;7387319;19;20010;-82
2022/07/28 00:25:23;;;;;;;6.80;0.73;;;;;;;14.71;100.00;100106.25;7387738;19;20015;-82
2022/07/28 00:27:49;;;;;;;5.53;1.52;;;;;;;14.71;100.00;100106.25;7386469;19;20022;-82
2022/07/28 00:30:15;;;;;;;4.15;1.00;;;;;;;14.69;100.00;100111.59;7386402;19;20021;-82
2022/07/28 00:32:41;;;;;;;2.28;1.05;;;;;;;14.73;100.00;100105.75;7388501;19;20026;-82
2022/07/28 00:35:08;;;;;;;3.55;1.67;;;;;;;14.74;100.00;100107.28;7386430;19;20010;-83
2022/07/28 00:37:34;;;;;;;0.95;0.50;;;;;;;14.76;100.00;100108.34;7393874;19;20035;-82
2022/07/28 00:40:01;;;;;;;3.80;0.93;;;;;;;14.76;100.00;100108.34;7388613;19;20038;-83
2022/07/28 00:42:27;;;;;;;1.27;0.52;;;;;;;14.80;100.00;100108.88;7388904;19;20374;-82
2022/07/28 00:44:53;;;;;;;1.98;0.77;;;;;;;14.82;100.00;100106.34;7389655;19;20018;-83
2022/07/28 00:47:19;;;;;;;1.23;1.00;;;;;;;14.79;100.00;100104.50;7392380;19;20015;-84
2022/07/28 00:49:47;;;;;;;22.17;1.23;;;;;;;14.81;100.00;100101.97;7386107;19;20026;-82
2022/07/28 00:52:16;;;;;;;4.68;1.17;;;;;;;14.81;100.00;100107.59;7388003;19;20021;-83
2022/07/28 00:54:42;;;;;;;4.72;1.33;;;;;;;14.83;100.00;100107.88;7390507;19;20042;-84
2022/07/28 00:57:08;;;;;;;2.33;0.88;;;;;;;14.82;100.00;100105.56;7389416;19;20035;-83
2022/07/28 00:59:35;;;;;;;2.20;0.95;;;;;;;14.81;100.00;100104.03;7390972;19;20022;-84
2022/07/28 01:02:02;;;;;;;4.22;1.25;;;;;;;14.80;100.00;100108.88;7389202;19;20047;-83
2022/07/28 01:04:29;;;;;;;1.67;0.85;;;;;;;14.79;100.00;100106.56;7389278;19;20019;-83
2022/07/28 01:07:14;;;;;;;2.17;0.80;;;;;;;14.79;100.00;100107.31;7390122;19;20019;-83
2022/07/28 01:10:22;;;;;;;4.80;0.88;;;;;;;14.81;100.00;100106.84;7388092;19;20490;-84
2022/07/28 01:13:07;;;;;;;2.67;1.35;;;;;;;14.81;100.00;100110.41;7384389;19;20022;-85
2022/07/28 01:15:41;;;;;;;1.77;0.95;;;;;;;14.81;100.00;100104.78;7386154;19;20052;-83
2022/07/28 01:18:16;;;;;;;2.90;1.08;;;;;;;14.82;100.00;100105.56;7389892;19;20026;-83
2022/07/28 01:20:51;;;;;;;8.65;1.17;;;;;;;14.83;100.00;100107.88;7389991;19;20054;-84
2022/07/28 01:23:33;;;;;;;5.15;0.98;;;;;;;14.83;100.00;100102.28;7388182;19;20019;-82
2022/07/28 01:26:37;;;;;;;0.80;0.60;;;;;;;14.82;100.00;100102.75;7387500;19;20477;-82
2022/07/28 01:29:09;;;;;;;2.10;0.93;;;;;;;14.82;100.00;100111.94;7384997;19;20017;-82
2022/07/28 01:31:39;;;;;;;2.60;1.05;;;;;;;14.80;100.00;100103.25;7387285;19;20019;-82
2022/07/28 01:34:09;;;;;;;3.50;1.35;;;;;;;14.82;100.00;100106.34;7386196;19;20041;-82
2022/07/28 01:36:42;;;;;;;3.58;0.63;;;;;;;14.81;100.00;100107.59;7387968;19;20018;-83
2022/07/28 01:39:09;;;;;;;5.85;1.33;;;;;;;14.81;100.00;100098.44;7386714;19;20022;-82
2022/07/28 01:41:38;;;;;;;1.20;0.73;;;;;;;14.82;100.00;100100.72;7387807;19;20014;-82
2022/07/28 01:44:09;;;;;;;4.07;1.42;;;;;;;14.79;100.00;100101.72;7388162;19;20014;-81
2022/07/28 01:46:37;;;;;;;2.38;0.95;;;;;;;14.82;100.00;100094.34;7387259;19;20018;-83
2022/07/28 01:49:05;;;;;;;1.98;1.10;;;;;;;14.83;100.00;100099.47;7385495;19;20015;-82
2022/07/28 01:51:33;;;;;;;1.30;0.70;;;;;;;14.81;100.00;100101.97;7385520;19;20015;-82
2022/07/28 01:54:01;;;;;;;2.58;0.90;;;;;;;14.80;100.00;100096.88;7386809;19;20014;-82
2022/07/28 01:56:29;;;;;;;4.40;1.73;;;;;;;14.78;100.00;100094.59;7385533;19;20629;-83
2022/07/28 01:59:01;;;;;;;3.75;1.52;;;;;;;14.78;100.00;100097.38;7385441;19;20049;-82
2022/07/28 02:01:30;;;;;;;2.05;0.80;;;;;;;14.76;100.00;100097.13;7385534;19;20029;-82
2022/07/28 02:04:00;;;;;;;2.25;0.50;;;;;;;14.74;100.00;100099.66;7384829;19;20019;-83
2022/07/28 02:06:27;;;;;;;2.63;1.10;;;;;;;14.75;100.00;100095.56;7385696;19;20018;-83
2022/07/28 02:08:55;;;;;;;0.88;0.40;;;;;;;14.73;100.00;100098.09;7384120;19;20023;-83
2022/07/28 02:11:38;;;;;;;1.95;0.85;;;;;;;14.71;100.00;100095.03;7393984;19;20017;-83
2022/07/28 02:14:11;;;;;;;1.33;0.52;;;;;;;14.70;100.00;100087.91;7393043;19;20092;-83
2022/07/28 02:16:42;;;;;;;4.68;0.80;;;;;;;14.70;100.00;100099.13;7394733;19;20492;-83
2022/07/28 02:19:10;;;;;;;3.97;1.00;;;;;;;14.66;100.00;100086.59;7393366;19;20015;-83
2022/07/28 02:21:37;;;;;;;2.35;0.82;;;;;;;14.67;100.00;100086.09;7392876;19;20082;-83
2022/07/28 02:24:05;;;;;;;9.27;1.17;;;;;;;14.67;100.00;100083.28;7393526;19;20025;-83
2022/07/28 02:26:36;;;;;;;2.15;1.08;;;;;;;14.65;100.00;100082.25;7392769;19;20011;-83
2022/07/28 02:29:05;;;;;;;1.35;0.68;;;;;;;14.65;100.00;100080.22;7391179;19;20014;-83
2022/07/28 02:31:50;;;;;;;1.40;0.47;;;;;;;14.64;100.00;100084.28;7392975;19;20022;-83
2022/07/28 02:34:21;;;;;;;2.58;0.68;;;;;;;14.61;100.00;100071.28;7393061;19;20665;-83
2022/07/28 02:36:54;;;;;;;4.90;0.75;;;;;;;14.60;100.00;100077.34;7391818;19;20095;-83
2022/07/28 02:39:33;;;;;;;1.05;0.40;;;;;;;14.58;100.00;100079.88;7391671;19;20018;-82
2022/07/28 02:42:17;;;;;;;3.58;0.95;;;;;;;14.55;100.00;100076.06;7392862;19;20037;-82
2022/07/28 02:44:54;;;;;;;2.15;0.60;;;;;;;14.54;100.00;100068.13;7393558;19;20015;-83
2022/07/28 02:47:25;;;;;;;1.40;0.45;;;;;;;14.49;100.00;100072.44;7394236;19;20026;-84
2022/07/28 02:49:54;;;;;;;0.60;0.30;;;;;;;14.50;100.00;100067.59;7390359;19;20491;-83
2022/07/28 02:52:25;;;;;;;1.25;0.52;;;;;;;14.49;100.00;100066.81;7390291;19;20018;-83
2022/07/28 02:54:53;;;;;;;1.10;0.30;;;;;;;14.42;100.00;100064.50;7388808;19;20026;-83
2022/07/28 02:57:21;;;;;;;1.70;0.68;;;;;;;14.37;100.00;100065.97;7392093;19;20019;-83
2022/07/28 02:59:50;;;;;;;1.23;0.75;;;;;;;14.39;100.00;100071.06;7394921;19;20007;-83
2022/07/28 03:02:20;;;;;;;3.83;1.13;;;;;;;14.43;100.00;100074.41;7394538;19;20351;-83
2022/07/28 03:04:57;;;;;;;1.35;0.35;;;;;;;14.48;100.00;100070.13;7391135;19;20018;-83
2022/07/28 03:07:28;;;;;;;2.08;0.40;;;;;;;14.47;100.00;100069.34;7393462;19;20019;-82
2022/07/28 03:09:55;;;;;;;;;;;;;;;14.43;100.00;100069.59;7391951;19;20033;-83
2022/07/28 03:12:21;;;;;;;2.72;0.80;;;;;;;14.41;100.00;100072.13;7390946;19;19922;-83
2022/07/28 03:14:48;;;;;;;0.38;0.35;;;;;;;14.40;100.00;100064.22;7391649;19;20026;-82
2022/07/28 03:17:14;;;;;;;0.57;0.38;;;;;;;14.40;100.00;100067.03;7388887;19;20021;-82
2022/07/28 03:19:40;;;;;;;0.95;0.75;;;;;;;14.40;100.00;100070.56;7389967;19;20015;-82
2022/07/28 03:22:06;;;;;;;1.30;0.55;;;;;;;14.39;100.00;100069.06;7392025;19;20026;-83
2022/07/28 03:24:36;;;;;;;1.05;0.40;;;;;;;14.37;100.00;100077.19;7392546;19;20081;-82
2022/07/28 03:27:19;;;;;;;1.00;0.55;;;;;;;14.39;100.00;100071.06;7391458;19;20362;-83
2022/07/28 03:29:49;;;;;;;5.10;0.82;;;;;;;14.38;100.00;100061.13;7388934;19;20075;-83
2022/07/28 03:32:19;;;;;;;1.30;0.43;;;;;;;14.41;100.00;100071.34;7387470;19;20025;-83
2022/07/28 03:34:46;;;;;;;0.60;0.40;;;;;;;14.36;100.00;100066.47;7385156;19;20071;-83
2022/07/28 03:37:17;;;;;;;0.63;0.30;;;;;;;14.38;100.00;100063.94;7391691;19;20011;-82
2022/07/28 03:39:47;;;;;;;0.63;0.20;;;;;;;14.35;100.00;100062.13;7392192;19;20015;-83
2022/07/28 03:42:17;;;;;;;7.10;1.08;;;;;;;14.33;100.00;100062.63;7390201;19;20014;-82
2022/07/28 03:44:45;;;;;;;2.35;0.70;;;;;;;14.32;100.00;100063.13;7391894;19;20492;-83
2022/07/28 03:47:12;;;;;;;1.08;0.63;;;;;;;14.29;100.00;100066.94;7391583;19;20805;-83
2022/07/28 03:49:38;;;;;;;2.05;0.75;;;;;;;14.27;100.00;100066.63;7389715;19;20074;-83
2022/07/28 03:52:05;;;;;;;1.45;0.60;;;;;;;14.27;100.00;100058.22;7387813;19;20093;-81
2022/07/28 03:54:31;;;;;;;2.13;1.15;;;;;;;14.27;100.00;100061.03;7386735;19;20015;-83
2022/07/28 03:56:57;;;;;;;3.17;0.80;;;;;;;14.25;100.00;100057.94;7389339;19;20484;-83
2022/07/28 03:59:23;;;;;;;1.98;0.57;;;;;;;14.23;100.00;100068.84;7390198;19;20014;-83
2022/07/28 04:01:50;;;;;;;1.08;0.17;;;;;;;14.23;100.00;100066.06;7388701;19;20115;-83
2022/07/28 04:04:16;;;;;;;0.57;0.30;;;;;;;14.24;100.00;100067.59;7391153;19;20018;-83
2022/07/28 04:06:42;;;;;;;0.52;0.52;;;;;;;14.21;100.00;100060.97;7390837;19;20018;-83
2022/07/28 04:09:08;;;;;;;1.40;0.55;;;;;;;14.18;100.00;100061.19;7387708;19;20014;-83
2022/07/28 04:11:34;;;;;;;3.40;0.40;;;;;;;14.19;100.00;100065.50;7388164;19;20410;-83
2022/07/28 04:14:00;;;;;;;3.67;0.30;;;;;;;14.18;100.00;100070.38;7389988;19;20043;-83
2022/07/28 04:16:26;;;;;;;2.67;0.63;;;;;;;14.21;100.00;100068.59;7390034;19;20624;-83
2022/07/28 04:18:52;;;;;;;0.50;0.25;;;;;;;14.19;100.00;100059.91;7389158;19;20018;-84
2022/07/28 04:21:20;;;;;;;0.28;0.25;;;;;;;14.19;100.00;100068.31;7390231;19;20480;-83
2022/07/28 04:23:46;;;;;;;0.77;0.40;;;;;;;14.17;100.00;100057.63;7388623;19;20025;-83
2022/07/28 04:26:13;;;;;;;0.90;0.30;;;;;;;14.15;100.00;100059.38;7390144;19;20114;-82
2022/07/28 04:28:39;;;;;;;0.47;0.22;;;;;;;14.15;100.00;100059.38;7385727;19;20014;-83
2022/07/28 04:31:05;;;;;;;0.52;0.10;;;;;;;14.13;100.00;100059.09;7388813;19;20077;-82
2022/07/28 04:33:31;;;;;;;1.27;0.40;;;;;;;14.12;100.00;100065.97;7386767;19;20011;-82
2022/07/28 04:35:59;;;;;;;2.30;0.25;;;;;;;14.08;100.00;100059.81;7388662;19;20019;-83
2022/07/28 04:38:25;;;;;;;2.95;0.88;;;;;;;14.07;100.00;100066.69;7391167;19;20661;-82
2022/07/28 04:40:52;;;;;;;0.10;0.10;;;;;;;14.09;100.00;100061.34;7390491;19;20015;-84
2022/07/28 04:43:18;;;;;;;4.63;0.65;;;;;;;14.09;100.00;100064.16;7387398;19;20022;-83
2022/07/28 04:45:45;;;;;;;1.20;0.50;;;;;;;14.09;100.00;100066.97;7387649;19;20480;-83
2022/07/28 04:48:13;;;;;;;0.43;0.43;;;;;;;14.08;100.00;100059.81;7386867;19;20015;-83
2022/07/28 04:50:40;;;;;;;1.10;0.30;;;;;;;14.06;100.00;100062.34;7387610;19;20014;-82
2022/07/28 04:53:07;;;;;;;0.50;0.20;;;;;;;14.10;100.00;100068.47;7388185;19;20022;-83
2022/07/28 04:55:33;;;;;;;1.52;0.20;;;;;;;14.09;100.00;100069.75;7387938;19;20018;-84
2022/07/28 04:58:00;;;;;;;4.47;0.80;;;;;;;14.11;100.00;100075.63;7389962;19;20038;-83
2022/07/28 05:00:26;;;;;;;0.20;0.20;;;;;;;14.15;100.00;100065.75;7390764;19;20190;-82
2022/07/28 05:02:52;;;;;;;0.22;0.20;;;;;;;14.16;100.00;100074.91;7387366;19;20018;-83
2022/07/28 05:05:18;;;;;;;2.55;0.45;;;;;;;14.20;100.00;100069.88;7386170;19;20481;-83
2022/07/28 05:07:44;;;;;;;0.38;0.13;;;;;;;14.21;100.00;100068.59;7391473;19;20106;-83
2022/07/28 05:10:11;;;;;;;0.20;0.20;;;;;;;14.20;100.00;100069.88;7387309;19;20074;-83
2022/07/28 05:12:37;;;;;;;0.45;0.28;;;;;;;14.20;100.00;100067.06;7386878;19;20018;-82
2022/07/28 05:15:06;;;;;;;0.10;0.10;;;;;;;14.18;100.00;100069.59;7385847;19;20011;-82
2022/07/28 05:17:32;;;;;;;1.52;0.63;;;;;;;14.18;100.00;100072.41;7391473;19;20019;-83
2022/07/28 05:19:58;;;;;;;0.50;0.20;;;;;;;14.20;100.00;100069.88;7388337;19;20051;-83
2022/07/28 05:22:24;;;;;;;0.30;0.30;;;;;;;14.22;100.00;100070.13;7387017;19;20029;-83
2022/07/28 05:24:50;;;;;;;0.80;0.20;;;;;;;14.24;100.00;100078.81;7386923;19;20014;-83
2022/07/28 05:27:17;;;;;;;0.25;0.20;;;;;;;14.22;100.00;100065.31;7390137;19;20019;-83
2022/07/28 05:29:43;;;;;;;0.82;0.38;;;;;;;14.23;100.00;100077.25;7386593;19;20018;-83
2022/07/28 05:32:10;;;;;;;2.38;0.32;;;;;;;14.24;100.00;100073.22;7385382;19;20090;-83
2022/07/28 05:34:37;;;;;;;0.80;0.40;;;;;;;14.24;100.00;100078.81;7388011;19;20454;-83
2022/07/28 05:37:03;;;;;;;0.45;0.45;;;;;;;14.30;100.00;100083.22;7389715;19;20065;-83
2022/07/28 05:39:31;;;;;;;0.68;0.10;;;;;;;14.33;100.00;100078.69;7390015;19;20023;-82
2022/07/28 05:41:59;;;;;;;0.90;0.25;;;;;;;14.35;100.00;100084.56;7387741;19;20030;-84
2022/07/28 05:44:25;;;;;;;1.42;0.30;;;;;;;14.41;100.00;100093.75;7391055;19;20355;-84
2022/07/28 05:46:51;;;;;;;1.38;0.30;;;;;;;14.43;100.00;100086.41;7395789;19;20011;-84
2022/07/28 05:49:18;;;;;;;1.30;0.22;;;;;;;14.46;100.00;100095.09;7393033;19;20019;-85
2022/07/28 05:51:44;;;;;;;0.10;0.10;;;;;;;14.47;100.00;100091.78;7394328;19;20015;-84
2022/07/28 05:54:12;;;;;;;0.25;0.10;;;;;;;14.52;100.00;100093.88;7393497;19;20492;-83
2022/07/28 05:56:38;;;;;;;0.30;0.20;;;;;;;14.56;100.00;100088.78;7393984;19;20019;-82
2022/07/28 05:59:08;;;;;;;0.77;0.55;;;;;;;14.60;100.00;100089.34;7392820;19;20011;-83
2022/07/28 06:01:36;;;;;;;0.68;0.52;;;;;;;14.66;100.00;100092.94;7392806;19;20014;-84
2022/07/28 06:04:03;;;;;;;0.50;0.32;;;;;;;14.66;100.00;100090.16;7393350;19;20042;-82
2022/07/28 06:06:29;;;;;;;0.35;0.30;;;;;;;14.75;100.00;100089.22;7394784;19;20018;-83
2022/07/28 06:08:55;;;;;;;0.65;0.32;;;;;;;14.83;100.00;100088.25;7390570;19;20021;-84
2022/07/28 06:11:21;;;;;;;2.33;0.40;;;;;;;14.87;100.00;100080.38;7394016;19;20524;-85
2022/07/28 06:13:48;;;;;;;0.30;0.10;;;;;;;14.93;100.00;100078.38;7394836;19;20050;-83
2022/07/28 06:16:14;;;;;;;2.83;0.43;;;;;;;14.99;100.00;100092.41;7392138;19;20018;-82
2022/07/28 06:18:42;;;;;;;1.30;0.20;;;;;;;15.03;100.00;100076.91;7393819;19;20029;-83
2022/07/28 06:21:09;;;;;;;0.77;0.65;;;;;;;15.10;100.00;100087.66;7393313;19;20023;-83
2022/07/28 06:23:35;;;;;;;0.22;0.10;;;;;;;15.14;100.00;100082.56;7394084;19;20070;-83
2022/07/28 06:26:02;;;;;;;0.10;0.10;;;;;;;15.22;100.00;100077.28;7393433;19;20105;-83
2022/07/28 06:28:28;;;;;;;0.10;0.10;;;;;;;15.33;100.00;100087.78;7391347;19;20015;-83
2022/07/28 06:30:54;;;;;;;0.20;0.20;;;;;;;15.37;100.00;100089.09;7393401;19;20142;-84
2022/07/28 06:33:20;;;;;;;0.88;0.35;;;;;;;15.41;100.00;100083.22;7391806;19;20023;-83
2022/07/28 06:35:46;;;;;;;4.05;0.57;;;;;;;15.41;100.00;100086.03;7392137;19;20031;-83
2022/07/28 06:38:12;;;;;;;2.13;0.52;;;;;;;15.42;100.00;100096.00;7392862;19;20015;-84
2022/07/28 06:40:39;;;;;;;0.77;0.40;;;;;;;15.45;100.00;100089.41;7395121;19;20039;-84
2022/07/28 06:43:05;;;;;;;0.52;0.30;;;;;;;15.46;100.00;100088.91;7393543;19;20015;-83
2022/07/28 06:45:31;;;;;;;9.73;0.30;;;;;;;15.48;100.00;100091.97;7391358;19;20067;-83
2022/07/28 06:47:57;;;;;;;0.20;0.20;;;;;;;15.53;100.00;100094.03;7390302;19;20491;-85
2022/07/28 06:50:24;;;;;;;1.25;0.45;;;;;;;15.54;100.00;100094.81;7391023;19;20026;-82
2022/07/28 06:52:50;;;;;;;0.52;0.20;;;;;;;15.60;100.00;100101.19;7392179;19;20023;-83
2022/07/28 06:55:16;;;;;;;0.10;0.10;;;;;;;15.66;100.00;100099.94;7391230;19;20022;-84
2022/07/28 06:57:42;;;;;;;0.32;0.10;;;;;;;15.69;100.00;100104.56;7396474;19;20666;-84
2022/07/28 07:00:12;;;;;;;0.35;0.10;;;;;;;15.80;100.00;100096.19;7396727;19;20085;-83
2022/07/28 07:02:39;;;;;;;0.35;0.20;;;;;;;15.89;100.00;100095.19;7391822;19;20027;-82
2022/07/28 07:05:07;;;;;;;0.35;0.30;;;;;;;15.97;100.00;100093.41;7390790;19;20033;-83
2022/07/28 07:07:33;;;;;;;1.83;0.30;;;;;;;16.09;100.00;100097.78;7394589;19;20010;-83
2022/07/28 07:10:00;;;;;;;0.30;0.13;;;;;;;16.17;100.00;100096.03;7392865;19;20014;-83
2022/07/28 07:12:26;;;;;;;0.55;0.52;;;;;;;16.28;100.00;100093.25;7390821;19;20034;-83
2022/07/28 07:14:52;;;;;;;0.10;0.08;;;;;;;16.40;100.00;100091.97;7391062;19;20024;-83
2022/07/28 07:17:19;;;;;;;0.20;0.10;;;;;;;16.52;100.00;100099.13;7392768;19;20022;-84
2022/07/28 07:19:45;;;;;;;0.25;0.10;;;;;;;16.60;100.00;100094.56;7393094;19;20017;-84
2022/07/28 07:22:14;;;;;;;4.65;0.65;;;;;;;16.73;100.00;100093.28;7391447;19;20015;-84
2022/07/28 07:24:40;;;;;;;2.05;0.28;;;;;;;16.85;100.00;100094.81;7391509;19;20023;-83
2022/07/28 07:27:07;;;;;;;0.38;0.10;;;;;;;16.99;100.00;100091.72;7392706;19;20014;-83
2022/07/28 07:29:33;;;;;;;0.28;0.10;;;;;;;17.07;100.00;100089.13;7390243;19;20382;-84
2022/07/28 07:31:59;;;;;;;0.30;0.10;;;;;;;17.21;100.00;100090.91;7392150;19;20014;-83
2022/07/28 07:34:25;;;;;;;0.20;0.20;;;;;;;17.33;100.00;100089.56;7393131;19;20026;-83
2022/07/28 07:36:51;;;;;;;2.25;0.30;;;;;;;17.47;100.00;100088.53;7394284;19;20021;-83
2022/07/28 07:39:17;;;;;;;1.05;0.40;;;;;;;17.58;100.00;100094.16;7391654;19;20015;-85
2022/07/28 07:41:44;;;;;;;5.72;0.90;;;;;;;17.66;100.00;100083.09;7392659;19;20007;-83
2022/07/28 07:44:10;;;;;;;0.38;0.30;;;;;;;17.70;100.00;100089.97;7392117;19;20585;-83
2022/07/28 07:46:37;;;;;;;0.95;0.38;;;;;;;17.77;100.00;100095.06;7388915;19;20481;-84
2022/07/28 07:49:03;;;;;;;0.28;0.10;;;;;;;17.83;100.00;100093.00;7388305;19;20015;-83
2022/07/28 07:51:29;;;;;;;0.30;0.15;;;;;;;17.91;100.00;100093.97;7392796;19;20018;-83
2022/07/28 07:53:55;;;;;;;0.77;0.20;;;;;;;17.97;100.00;100096.78;7389630;19;20346;-83
2022/07/28 07:56:21;;;;;;;1.10;0.40;;;;;;;18.01;100.00;100092.41;7391471;19;20109;-83
2022/07/28 07:58:48;;;;;;;1.65;0.28;;;;;;;18.10;100.00;100094.88;7389395;19;20019;-84
2022/07/28 08:01:15;;;;;;;0.85;0.22;;;;;;;18.14;100.00;100078.47;7389946;19;20022;-83
2022/07/28 08:03:42;;;;;;;1.20;0.30;;;;;;;18.19;100.00;100079.72;7389885;19;20019;-83
2022/07/28 08:06:08;;;;;;;0.15;0.10;;;;;;;18.28;100.00;100075.81;7389476;19;20038;-83
2022/07/28 08:08:34;;;;;;;1.80;0.15;;;;;;;18.40;100.00;100080.09;7385301;19;20029;-83
2022/07/28 08:11:00;;;;;;;0.17;0.15;;;;;;;18.46;100.00;100073.16;7388691;19;20039;-83
2022/07/28 08:13:27;;;;;;;0.40;0.10;;;;;;;18.54;100.00;100073.31;7390749;19;20014;-83
2022/07/28 08:15:53;;;;;;;0.98;0.20;;;;;;;18.51;100.00;100077.22;7388974;19;20003;-83
2022/07/28 08:18:19;;;;;;;1.73;0.28;;;;;;;18.58;100.00;100076.66;7389870;19;20022;-82
2022/07/28 08:20:45;;;;;;;0.10;0.00;;;;;;;18.64;100.00;100071.72;7386872;19;20025;-83
2022/07/28 08:23:11;;;;;;;0.40;0.30;;;;;;;18.66;100.00;100071.97;7388590;19;20014;-83
2022/07/28 08:25:37;;;;;;;1.08;0.30;;;;;;;18.71;100.00;100079.63;7388223;19;20051;-82
2022/07/28 08:28:04;;;;;;;0.40;0.20;;;;;;;18.82;100.00;100077.44;7388083;19;20018;-83
2022/07/28 08:30:30;;;;;;;0.35;0.10;;;;;;;18.92;100.00;100080.69;7389152;19;20025;-83
2022/07/28 08:32:56;;;;;;;0.17;0.00;;;;;;;19.04;100.00;100084.94;7388542;19;20023;-83
2022/07/28 08:35:24;;;;;;;0.43;0.05;;;;;;;19.10;100.00;100070.78;7388170;19;20018;-83
2022/07/28 08:37:50;;;;;;;0.25;0.20;;;;;;;19.06;100.00;100071.03;7392861;19;20039;-83
2022/07/28 08:40:16;;;;;;;1.95;0.30;;;;;;;19.04;100.00;100065.16;7389296;19;20022;-83
2022/07/28 08:43:00;;;;;;;2.72;0.40;;;;;;;19.07;100.00;100075.41;7388658;19;20018;-83
2022/07/28 08:45:29;;;;;;;0.17;0.10;;;;;;;19.08;100.00;100076.94;7387367;19;20010;-84
2022/07/28 08:47:56;;;;;;;0.60;0.10;;;;;;;19.16;100.00;100077.13;7390193;19;20414;-83
2022/07/28 08:50:23;;;;;;;0.10;0.00;;;;;;;19.24;100.00;100075.22;7388064;19;20020;-83
2022/07/28 08:52:52;;;;;;;2.22;0.10;;;;;;;19.36;100.00;100077.41;7388167;19;20019;-83
2022/07/28 08:55:26;;;;;;;0.40;0.10;;;;;;;19.48;100.00;100072.41;7390255;19;20030;-83
2022/07/28 08:57:55;;;;;;;2.33;0.20;;;;;;;19.57;100.00;100072.81;7389446;19;20042;-83
2022/07/28 09:00:22;;;;;;;0.20;0.10;;;;;;;19.74;100.00;100066.16;7392478;19;20027;-83
2022/07/28 09:02:50;;;;;;;2.53;1.40;;;;;;;19.73;100.00;100064.66;7390358;19;20406;-83
2022/07/28 09:05:19;;;;;;;1.92;0.05;;;;;;;19.74;100.00;100060.53;7391175;19;20015;-83
2022/07/28 09:07:50;;;;;;;0.63;0.20;;;;;;;19.91;100.00;100063.88;7395082;19;20612;-82
2022/07/28 09:10:17;;;;;;;1.45;0.47;;;;;;;20.03;100.00;100065.28;7392644;19;20014;-83
2022/07/28 09:12:44;;;;;;;0.22;0.10;;;;;;;20.18;100.00;100057.81;7404814;19;20025;-81
2022/07/28 09:15:12;;;;;;;0.17;0.10;;;;;;;20.30;100.00;100052.78;7401254;19;20023;-81
2022/07/28 09:17:39;;;;;;;0.38;0.10;;;;;;;20.38;100.00;100062.16;7405742;19;20015;-81
2022/07/28 09:20:06;;;;;;;0.50;0.17;;;;;;;20.36;100.00;100053.47;7391518;19;20010;-81
2022/07/28 09:22:52;;;;;;;0.85;0.00;;;;;;;20.45;100.00;100055.88;7385747;19;20408;-81
2022/07/28 09:25:18;;;;;;;0.40;0.20;;;;;;;20.54;100.00;100052.66;7386984;19;20027;-81
2022/07/28 09:27:45;;;;;;;0.95;0.20;;;;;;;20.52;100.00;100054.50;7392626;19;20029;-82
2022/07/28 09:30:14;;;;;;;0.45;0.10;;;;;;;20.39;100.00;100058.06;7387139;19;20044;-83
2022/07/28 09:32:40;;;;;;;0.35;0.20;;;;;;;20.24;100.00;100055.72;7387370;19;20111;-82
2022/07/28 09:35:19;;;;;;;1.13;0.05;;;;;;;20.10;100.00;100053.31;7383976;19;20014;-82
2022/07/28 09:37:45;;;;;;;3.33;0.10;;;;;;;19.92;100.00;100054.13;7388609;19;20043;-81
2022/07/28 09:40:12;;;;;;;0.55;0.17;;;;;;;19.76;100.00;100046.63;7385011;19;20018;-83
2022/07/28 09:42:48;;;;;;;0.20;0.10;;;;;;;19.71;100.00;100050.31;7384860;19;20018;-81
2022/07/28 09:45:15;;;;;;;0.75;0.30;;;;;;;19.65;100.00;100048.31;7386049;19;20014;-81
2022/07/28 09:47:41;;;;;;;0.28;0.10;;;;;;;19.57;100.00;100041.75;7392442;19;20112;-85
2022/07/28 09:50:19;;;;;;;0.25;0.17;;;;;;;19.52;100.00;100055.91;7394008;19;20010;-85
2022/07/28 09:52:45;;;;;;;0.75;0.20;;;;;;;19.45;100.00;100050.88;7385663;19;20026;-82
2022/07/28 09:55:12;;;;;;;0.22;0.10;;;;;;;19.35;100.00;100053.31;7384196;19;20055;-82
2022/07/28 09:57:39;;;;;;;4.65;0.20;;;;;;;19.28;100.00;100065.16;7389663;19;20022;-82
2022/07/28 10:00:09;;;;;;;0.10;0.03;;;;;;;19.18;100.00;100052.72;7386984;19;20410;-82
2022/07/28 10:02:38;;;;;;;1.10;0.10;;;;;;;19.07;100.00;100061.28;7384488;19;20014;-82
2022/07/28 10:05:05;;;;;;;0.20;0.10;;;;;;;19.02;100.00;100064.94;7384217;19;20022;-82
2022/07/28 10:07:33;;;;;;;1.25;0.10;;;;;;;18.96;100.00;100058.59;7387022;19;20018;-81
2022/07/28 10:10:02;;;;;;;1.77;0.32;;;;;;;18.90;100.00;100066.34;7385192;19;20022;-82
2022/07/28 10:12:31;;;;;;;0.35;0.32;;;;;;;18.85;100.00;100064.34;7384022;19;20370;-82
2022/07/28 10:16:09;;;;;;;11.90;0.60;;;;;;;18.87;100.00;100058.94;7382007;19;20015;-82
2022/07/28 10:17:56;;;;;;;0.98;0.20;;;;;;;18.90;100.00;100055.84;7384115;19;20011;-82
2022/07/28 10:20:23;;;;;;;0.55;0.28;;;;;;;18.97;100.00;100062.19;7385694;19;20106;-81
2022/07/28 10:22:51;;;;;;;0.85;0.30;;;;;;;18.98;100.00;100064.47;7385689;19;20019;-82
2022/07/28 10:25:20;;;;;;;0.40;0.10;;;;;;;18.97;100.00;100057.31;7382104;19;20014;-82
2022/07/28 10:27:48;;;;;;;2.58;0.73;;;;;;;18.93;100.00;100062.44;7387387;19;20015;-82
2022/07/28 10:30:14;;;;;;;0.90;0.15;;;;;;;18.90;100.00;100058.66;7385602;19;20029;-81
2022/07/28 10:32:42;;;;;;;1.02;0.08;;;;;;;18.87;100.00;100054.06;7392294;19;20536;-82
2022/07/28 10:35:14;;;;;;;0.20;0.20;;;;;;;18.82;100.00;100065.38;7391893;19;20018;-82
2022/07/28 10:37:45;;;;;;;1.50;0.88;;;;;;;18.81;100.00;100055.41;7397203;19;20054;-82
2022/07/28 10:40:12;;;;;;;1.13;0.85;;;;;;;18.78;100.00;100053.63;7390837;19;20039;-82
2022/07/28 10:42:42;;;;;;;1.98;0.55;;;;;;;18.72;100.00;100048.03;7393630;19;20390;-83
2022/07/28 10:45:10;;;;;;;2.08;0.57;;;;;;;18.72;100.00;100058.56;7392787;19;20446;-82
2022/07/28 10:47:36;;;;;;;0.98;0.20;;;;;;;18.77;100.00;100057.75;7395538;19;20018;-83
2022/07/28 10:50:04;;;;;;;2.40;0.60;;;;;;;18.76;100.00;100059.03;7391585;19;20019;-83
2022/07/28 10:52:32;;;;;;;1.15;0.30;;;;;;;18.79;100.00;100053.13;7389850;19;20485;-83
2022/07/28 10:55:26;;;;;;;0.95;0.10;;;;;;;18.87;100.00;100053.28;7391041;19;20040;-83
2022/07/28 10:58:19;;;;;;;0.65;0.15;;;;;;;18.99;100.00;100049.06;7391011;19;20042;-82
2022/07/28 11:00:50;;;;;;;0.57;0.28;;;;;;;19.10;100.00;100048.94;7389368;19;20039;-83
2022/07/28 11:03:38;;;;;;;2.05;0.25;;;;;;;19.30;100.00;100044.84;7391095;19;20022;-82
2022/07/28 11:06:27;;;;;;;0.32;0.08;;;;;;;19.52;100.00;100047.44;7389748;19;20026;-82
2022/07/28 11:08:56;;;;;;;0.63;0.20;;;;;;;19.66;100.00;100037.78;7388850;19;20155;-83
2022/07/28 11:11:45;;;;;;;1.88;0.20;;;;;;;19.90;100.00;100039.75;7389711;19;20331;-83
2022/07/28 11:14:24;;;;;;;0.47;0.13;;;;;;;20.02;100.00;100038.28;7390986;19;20022;-83
2022/07/28 11:17:02;;;;;;;2.00;0.32;;;;;;;20.17;100.00;100047.06;7392317;19;20374;-83
2022/07/28 11:19:30;;;;;;;2.25;0.20;;;;;;;20.25;100.00;100043.09;7390201;19;20070;-83
2022/07/28 11:22:17;;;;;;;0.22;0.20;;;;;;;20.33;100.00;100034.75;7391917;19;20047;-83
2022/07/28 11:25:05;;;;;;;8.52;0.20;;;;;;;20.38;100.00;100043.13;7391892;19;20699;-83